Time;durP1;ratioP1;P1;durP2;ratioP2;P2;SDS_P1;SDS_P2;PMS_P1;PMS_P2;Temp;Humidity;BMP_temperature;BMP_pressure;BME280_temperature;BME280_humidity;BME280_pressure;Samples;Min_cycle;Max_cycle;Signal;HPM_P1;HPM_P2
2022/12/07 14:19:47;;;;;;;14.45;9.02;;;;;;;5.16;71.04;99805.94;1084099;46;20038;-79
2022/12/07 14:21:06;;;;;;;12.60;8.82;;;;;;;5.29;70.75;99811.19;1085210;54;20039;-78
2022/12/07 14:22:28;;;;;;;14.20;8.48;;;;;;;5.30;70.71;99807.53;1084486;39;20840;-78
2022/12/07 14:23:32;;;;;;;15.10;9.45;;;;;;;5.40;70.67;99803.22;1085436;54;20077;-80
2022/12/07 14:24:45;;;;;;;13.90;8.52;;;;;;;5.52;70.69;99811.22;1085107;54;20122;-78
2022/12/07 14:25:50;;;;;;;14.32;8.98;;;;;;;5.47;70.46;99806.25;1084046;46;20041;-78
2022/12/07 14:26:54;;;;;;;16.38;9.23;;;;;;;5.33;71.00;99803.84;1087217;54;20042;-77
2022/12/07 14:28:00;;;;;;;15.48;9.48;;;;;;;5.28;70.99;99810.31;1087431;54;20038;-78
2022/12/07 14:29:32;;;;;;;12.05;8.00;;;;;;;5.43;70.02;99818.09;1087325;54;20057;-77
2022/12/07 14:30:37;;;;;;;13.00;8.57;;;;;;;5.52;70.58;99812.06;1087141;54;20042;-77
2022/12/07 14:31:38;;;;;;;15.20;8.93;;;;;;;5.34;70.64;99806.38;1086916;54;20042;-78
2022/12/07 14:32:48;;;;;;;12.40;8.50;;;;;;;5.40;70.61;99811.19;1084723;54;20038;-78
2022/12/07 14:33:52;;;;;;;15.25;8.93;;;;;;;5.55;70.44;99811.00;1084817;54;20042;-76
2022/12/07 14:34:55;;;;;;;15.63;8.95;;;;;;;5.26;70.70;99806.94;1086014;54;20658;-78
2022/12/07 14:36:02;;;;;;;12.98;9.43;;;;;;;5.21;71.09;99801.16;1087322;54;20034;-77
2022/12/07 14:37:07;;;;;;;14.07;9.80;;;;;;;5.09;71.32;99804.72;1087652;54;20030;-77
2022/12/07 14:38:11;;;;;;;13.13;9.88;;;;;;;5.04;71.56;99810.38;1087576;54;20046;-78
2022/12/07 14:39:12;;;;;;;14.85;9.02;;;;;;;5.05;71.37;99801.47;1087592;54;20058;-77
2022/12/07 14:40:18;;;;;;;13.68;10.13;;;;;;;4.93;71.59;99805.88;1087455;54;20034;-79
2022/12/07 14:42:54;;;;;;;15.25;10.23;;;;;;;5.00;71.67;99804.47;1087054;54;20046;-78
2022/12/07 14:44:00;;;;;;;13.80;10.15;;;;;;;4.90;71.79;99797.31;1085554;54;20089;-80
2022/12/07 14:45:04;;;;;;;13.82;9.65;;;;;;;4.88;71.68;99807.19;1085789;54;20065;-82
2022/12/07 14:46:09;;;;;;;14.60;9.25;;;;;;;5.08;71.16;99806.53;1088601;46;20067;-78
2022/12/07 14:47:13;;;;;;;14.38;9.65;;;;;;;5.08;71.10;99789.78;1084745;54;20088;-79
2022/12/07 14:48:18;;;;;;;14.20;9.52;;;;;;;5.02;71.58;99806.97;1086588;54;20046;-79
2022/12/07 14:49:19;;;;;;;15.32;9.75;;;;;;;5.15;71.18;99799.81;1085237;54;20050;-80
2022/12/07 14:50:24;;;;;;;16.23;9.43;;;;;;;5.15;71.35;99799.81;1084767;54;20034;-79
2022/12/07 14:51:29;;;;;;;17.27;9.55;;;;;;;5.25;71.17;99796.47;1086501;46;20603;-80
2022/12/07 14:54:31;;;;;;;17.48;10.10;;;;;;;4.99;71.19;99791.34;1085089;54;20058;-79
2022/12/07 14:55:35;;;;;;;13.27;9.38;;;;;;;4.93;71.58;99805.88;1085431;54;20039;-79
2022/12/07 14:56:37;;;;;;;13.77;9.27;;;;;;;4.98;71.73;99793.13;1085458;46;20156;-79
2022/12/07 14:57:41;;;;;;;15.55;9.90;;;;;;;5.11;71.34;99790.38;1084349;54;20041;-77
2022/12/07 14:58:47;;;;;;;14.45;9.30;;;;;;;5.05;71.30;99792.69;1084756;39;20915;-79
2022/12/07 14:59:49;;;;;;;12.85;8.93;;;;;;;5.00;71.71;99787.72;1084038;54;20044;-79
2022/12/07 15:00:53;;;;;;;13.38;8.68;;;;;;;5.00;71.71;99790.38;1084310;54;20038;-79
2022/12/07 15:01:54;;;;;;;11.85;8.45;;;;;;;5.11;71.49;99797.50;1085409;54;20050;-80
2022/12/07 15:03:00;;;;;;;14.05;8.60;;;;;;;4.96;71.58;99788.91;1084385;54;20026;-80
2022/12/07 15:04:01;;;;;;;14.27;10.27;;;;;;;4.87;72.21;99792.25;1084707;54;20069;-78
2022/12/07 15:05:06;;;;;;;14.27;9.10;;;;;;;4.95;71.68;99797.81;1084304;54;20065;-79
2022/12/07 15:06:10;;;;;;;15.68;9.63;;;;;;;4.93;72.37;99799.72;1084366;54;20094;-79
2022/12/07 15:07:23;;;;;;;13.15;9.52;;;;;;;4.95;72.20;99805.75;1084736;54;20069;-78
2022/12/07 15:08:25;;;;;;;16.00;10.45;;;;;;;5.01;72.28;99797.34;1084248;54;20038;-77
2022/12/07 15:09:29;;;;;;;16.15;10.02;;;;;;;4.95;72.23;99800.47;1084705;54;20150;-78
2022/12/07 15:10:38;;;;;;;15.10;10.05;;;;;;;5.04;72.04;99807.72;1084519;54;20054;-79
2022/12/07 15:11:42;;;;;;;16.15;10.52;;;;;;;5.00;72.30;99806.28;1084227;54;20065;-79
2022/12/07 15:12:46;;;;;;;13.93;9.40;;;;;;;4.94;72.54;99804.06;1085104;54;20093;-78
2022/12/07 15:15:08;;;;;;;15.27;10.98;;;;;;;4.96;72.34;99794.19;1085728;54;20035;-78
2022/12/07 15:16:11;;;;;;;13.70;9.88;;;;;;;4.94;72.69;99798.75;1085648;31;20533;-78
2022/12/07 15:17:15;;;;;;;14.05;9.27;;;;;;;4.96;72.33;99799.50;1085594;54;20030;-79
2022/12/07 15:18:20;;;;;;;15.65;10.43;;;;;;;4.97;72.53;99795.91;1085263;54;20034;-78
2022/12/07 15:19:27;;;;;;;15.52;9.88;;;;;;;4.98;72.65;99801.06;1085670;54;20057;-78
2022/12/07 15:20:31;;;;;;;16.83;10.57;;;;;;;4.90;72.95;99799.97;1087074;54;20111;-82
2022/12/07 15:21:32;;;;;;;16.48;10.73;;;;;;;4.96;72.61;99802.16;1087625;54;20034;-81
2022/12/07 15:22:39;;;;;;;15.10;10.05;;;;;;;4.88;72.67;99796.59;1087378;54;20034;-79
2022/12/07 15:23:41;;;;;;;14.93;9.98;;;;;;;4.87;73.05;99797.53;1087553;54;20106;-83
2022/12/07 15:24:45;;;;;;;14.82;10.02;;;;;;;4.89;73.12;99800.94;1087619;54;20027;-81
2022/12/07 15:25:48;;;;;;;14.10;10.20;;;;;;;4.81;73.15;99797.06;1086797;54;20038;-80
2022/12/07 15:26:52;;;;;;;15.27;10.23;;;;;;;4.78;72.97;99791.97;1084846;54;20080;-78
2022/12/07 15:27:54;;;;;;;18.80;11.07;;;;;;;4.76;73.50;99788.59;1085628;54;20583;-80
2022/12/07 15:28:58;;;;;;;14.65;10.57;;;;;;;4.66;73.70;99787.56;1086805;54;20677;-80
2022/12/07 15:30:03;;;;;;;14.18;9.98;;;;;;;4.77;73.50;99795.56;1087786;54;20697;-79
2022/12/07 15:31:14;;;;;;;17.30;11.00;;;;;;;4.77;73.15;99787.63;1087684;54;20035;-79
2022/12/07 15:32:18;;;;;;;15.57;11.07;;;;;;;4.75;73.54;99792.19;1087743;54;20054;-80
2022/12/07 15:33:22;;;;;;;15.65;10.13;;;;;;;4.65;73.84;99792.03;1087924;54;20035;-80
2022/12/07 15:34:31;;;;;;;15.18;11.18;;;;;;;4.58;74.39;99789.94;1087561;54;20023;-79
2022/12/07 15:35:54;;;;;;;;;;;;;;;;;;;;;
2022/12/07 15:37:01;;;;;;;14.38;9.73;;;;;;;4.66;74.13;99788.44;1088024;54;20831;-81
2022/12/07 15:38:41;;;;;;;14.65;10.20;;;;;;;4.55;74.77;99787.50;1087973;54;20110;-78
2022/12/07 15:39:45;;;;;;;15.90;10.35;;;;;;;4.59;74.65;99786.34;1087464;54;20038;-79
2022/12/07 15:40:47;;;;;;;24.80;14.48;;;;;;;4.48;74.59;99784.50;1090152;46;20031;-82
2022/12/07 15:41:55;;;;;;;17.15;11.20;;;;;;;4.42;74.99;99777.84;1088080;54;20063;-81
2022/12/07 15:42:57;;;;;;;21.65;13.02;;;;;;;4.50;75.09;99782.56;1088319;46;20019;-80
2022/12/07 15:45:18;;;;;;;17.83;11.38;;;;;;;4.40;75.28;99770.94;1088147;54;20030;-81
2022/12/07 15:46:20;;;;;;;15.43;11.05;;;;;;;4.47;75.05;99778.34;1087761;54;20037;-78
2022/12/07 15:47:24;;;;;;;17.33;11.60;;;;;;;4.36;75.85;99775.63;1087698;54;20080;-78
2022/12/07 15:48:28;;;;;;;18.33;10.77;;;;;;;4.46;75.49;99776.63;1087658;54;20038;-79
2022/12/07 15:49:32;;;;;;;16.38;11.38;;;;;;;4.44;75.61;99772.41;1087650;54;20037;-79
2022/12/07 15:51:11;;;;;;;15.65;11.32;;;;;;;4.42;75.56;99769.91;1087674;54;20038;-81
2022/12/07 15:52:19;;;;;;;19.10;12.90;;;;;;;4.55;74.98;99769.84;1088187;54;20011;-83
2022/12/07 15:53:25;;;;;;;21.27;14.00;;;;;;;4.65;74.75;99770.00;1087855;54;20045;-79
2022/12/07 15:54:31;;;;;;;24.45;13.70;;;;;;;4.41;75.51;99772.63;1089700;39;20409;-81
2022/12/07 15:55:33;;;;;;;17.33;12.40;;;;;;;4.37;75.61;99772.00;1087635;54;20069;-81
2022/12/07 15:56:37;;;;;;;17.85;12.45;;;;;;;4.35;75.81;99765.97;1087772;54;20034;-80
2022/12/07 15:57:43;;;;;;;16.98;11.35;;;;;;;4.33;76.09;99765.28;1087108;54;20038;-80
2022/12/07 16:02:22;;;;;;;16.67;11.32;;;;;;;4.33;76.16;99763.47;1087536;54;20034;-80
2022/12/07 16:03:23;;;;;;;18.73;12.38;;;;;;;4.28;76.40;99772.69;1087482;54;20035;-80
2022/12/07 16:04:29;;;;;;;19.02;13.07;;;;;;;4.33;76.04;99766.09;1087460;46;20042;-80
2022/12/07 16:05:57;;;;;;;18.70;12.63;;;;;;;4.30;76.17;99766.31;1087692;46;20650;-79
2022/12/07 16:07:01;;;;;;;23.60;13.38;;;;;;;4.31;75.84;99767.19;1087070;54;20039;-81
2022/12/07 16:08:07;;;;;;;18.75;13.35;;;;;;;4.38;75.77;99771.06;1087660;54;20035;-81
2022/12/07 16:09:13;;;;;;;19.92;13.38;;;;;;;4.43;75.70;99771.59;1088147;46;20050;-81
2022/12/07 16:10:20;;;;;;;16.90;12.13;;;;;;;4.42;75.65;99761.97;1087727;54;20053;-80
2022/12/07 16:11:22;;;;;;;19.00;12.88;;;;;;;4.38;75.76;99763.13;1087870;54;20061;-81
2022/12/07 16:12:26;;;;;;;18.45;12.60;;;;;;;4.39;75.68;99758.69;1087976;54;20034;-80
2022/12/07 16:13:29;;;;;;;19.83;13.63;;;;;;;4.39;75.97;99754.22;1087612;54;20049;-80
2022/12/07 16:16:31;;;;;;;18.25;11.93;;;;;;;4.35;75.74;99758.03;1087215;54;20014;-79
2022/12/07 16:17:32;;;;;;;21.77;12.50;;;;;;;4.31;76.19;99772.47;1088530;46;20038;-82
2022/12/07 16:18:44;;;;;;;18.23;12.60;;;;;;;4.34;75.91;99753.72;1087305;54;20033;-79
2022/12/07 16:19:48;;;;;;;21.40;13.15;;;;;;;4.34;75.74;99765.16;1086571;54;20059;-81
2022/12/07 16:20:50;;;;;;;20.13;14.23;;;;;;;4.27;76.02;99761.28;1086372;54;20045;-79
2022/12/07 16:21:54;;;;;;;20.17;13.18;;;;;;;4.36;75.93;99770.31;1086175;54;20026;-81
2022/12/07 16:22:56;;;;;;;39.42;20.10;;;;;;;4.53;75.49;99769.94;1086130;54;20069;-79
2022/12/07 16:24:00;;;;;;;28.10;15.80;;;;;;;4.61;75.09;99773.84;1085716;47;20035;-80
2022/12/07 16:25:08;;;;;;;24.52;14.02;;;;;;;4.58;74.96;99763.47;1086476;54;20094;-79
2022/12/07 16:26:12;;;;;;;25.38;14.50;;;;;;;4.56;74.89;99760.94;1085642;54;20043;-80
2022/12/07 16:27:16;;;;;;;18.90;13.23;;;;;;;4.50;75.43;99774.59;1085371;54;20054;-80
2022/12/07 16:28:18;;;;;;;20.73;14.18;;;;;;;4.48;75.44;99769.44;1084181;54;20042;-80
2022/12/07 16:29:24;;;;;;;26.73;18.48;;;;;;;4.60;75.09;99765.03;1083744;54;20038;-80
2022/12/07 16:30:25;;;;;;;38.53;24.40;;;;;;;4.73;74.64;99764.13;1087307;39;20445;-80
2022/12/07 16:31:31;;;;;;;25.48;16.88;;;;;;;4.49;75.19;99770.28;1086860;54;20045;-83
2022/12/07 16:32:32;;;;;;;21.95;14.98;;;;;;;4.47;75.22;99765.09;1085143;54;20085;-80
2022/12/07 16:33:37;;;;;;;20.25;14.48;;;;;;;4.49;75.50;99759.69;1086689;54;20102;-82
2022/12/07 16:34:42;;;;;;;20.05;13.55;;;;;;;4.53;75.24;99758.50;1086430;54;20067;-79
2022/12/07 16:35:44;;;;;;;18.65;13.45;;;;;;;4.52;75.23;99754.16;1086555;54;21118;-82
2022/12/07 16:36:50;;;;;;;18.27;13.18;;;;;;;4.52;75.14;99755.03;1086343;54;20038;-81
2022/12/07 16:37:51;;;;;;;19.80;12.98;;;;;;;4.42;75.47;99759.31;1086735;54;20089;-81
2022/12/07 16:38:56;;;;;;;16.98;12.10;;;;;;;4.38;75.98;99760.47;1085946;54;20039;-82
2022/12/07 16:39:58;;;;;;;21.92;13.23;;;;;;;4.33;76.49;99766.09;1087169;54;20058;-79
2022/12/07 16:41:05;;;;;;;18.15;11.70;;;;;;;4.41;76.11;99762.91;1087008;54;20042;-80
2022/12/07 16:42:06;;;;;;;22.05;12.80;;;;;;;4.50;75.73;99762.22;1086843;54;20536;-82
2022/12/07 16:43:16;;;;;;;17.15;11.15;;;;;;;4.72;74.98;99767.75;1087223;54;20912;-82
2022/12/07 16:44:20;;;;;;;18.65;12.60;;;;;;;4.60;75.10;99758.91;1087633;54;20035;-82
2022/12/07 16:45:21;;;;;;;18.73;12.60;;;;;;;4.65;75.04;99764.69;1087901;54;20062;-82
2022/12/07 16:46:25;;;;;;;19.20;12.38;;;;;;;4.57;75.30;99759.13;1088053;54;20646;-82
2022/12/07 16:47:29;;;;;;;15.43;11.45;;;;;;;4.69;75.17;99760.88;1087964;54;20046;-82
2022/12/07 16:48:37;;;;;;;16.10;11.52;;;;;;;4.83;74.80;99765.13;1088017;54;20021;-81
2022/12/07 16:49:41;;;;;;;17.42;12.07;;;;;;;4.67;74.91;99758.34;1088155;54;20021;-81
2022/12/07 16:50:48;;;;;;;17.98;11.40;;;;;;;4.72;74.88;99750.06;1088885;47;20416;-82
2022/12/07 16:51:50;;;;;;;19.80;12.00;;;;;;;4.67;75.10;99760.13;1086497;54;20042;-80
2022/12/07 16:52:54;;;;;;;15.70;11.55;;;;;;;4.66;74.99;99756.66;1086398;54;20030;-79
2022/12/07 16:53:56;;;;;;;16.35;11.35;;;;;;;4.60;75.24;99758.91;1091125;39;20669;-80
2022/12/07 16:55:00;;;;;;;17.48;11.70;;;;;;;4.62;75.27;99747.25;1086887;54;20042;-80
2022/12/07 16:56:11;;;;;;;25.30;12.82;;;;;;;4.76;74.82;99750.69;1086636;54;20054;-80
2022/12/07 16:57:23;;;;;;;19.63;12.18;;;;;;;4.69;75.04;99750.28;1086907;54;20069;-80
2022/12/07 16:58:25;;;;;;;17.50;11.27;;;;;;;4.75;74.77;99748.97;1087469;54;20090;-78
2022/12/07 16:59:30;;;;;;;17.90;13.15;;;;;;;4.66;74.89;99742.56;1087301;54;20034;-77
2022/12/07 17:00:32;;;;;;;20.02;14.55;;;;;;;4.60;74.93;99745.66;1087395;54;20027;-78
2022/12/07 17:01:37;;;;;;;17.02;12.77;;;;;;;4.63;74.94;99750.75;1087417;54;20061;-78
2022/12/07 17:02:38;;;;;;;77.07;25.00;;;;;;;4.70;74.61;99746.69;1087407;54;20039;-78
2022/12/07 17:03:43;;;;;;;66.40;24.48;;;;;;;4.67;74.79;99746.91;1087426;54;20034;-79
2022/12/07 17:04:45;;;;;;;50.70;20.30;;;;;;;4.58;74.68;99737.00;1087353;54;20039;-80
2022/12/07 17:05:49;;;;;;;104.80;31.40;;;;;;;4.52;75.20;99740.94;1087446;54;20042;-79
2022/12/07 17:06:54;;;;;;;34.53;16.25;;;;;;;4.46;75.20;99736.09;1087446;54;20732;-80
2022/12/07 17:07:57;;;;;;;23.67;13.73;;;;;;;4.52;75.13;99740.94;1087475;54;20035;-79
2022/12/07 17:09:01;;;;;;;20.60;14.27;;;;;;;4.50;75.45;99743.69;1087463;54;20087;-76
2022/12/07 17:10:06;;;;;;;22.88;14.00;;;;;;;4.48;75.49;99740.31;1089429;47;20023;-80
2022/12/07 17:11:19;;;;;;;18.10;12.02;;;;;;;4.60;75.22;99735.91;1087515;54;20031;-79
2022/12/07 17:12:25;;;;;;;18.75;12.25;;;;;;;4.79;74.74;99740.69;1087282;54;20053;-79
2022/12/07 17:16:04;;;;;;;19.80;12.82;;;;;;;4.74;74.54;99737.53;1087496;54;20535;-81
2022/12/07 17:17:06;;;;;;;24.17;13.02;;;;;;;4.87;74.30;99736.63;1087487;54;20038;-81
2022/12/07 17:18:10;;;;;;;20.58;12.93;;;;;;;4.56;74.80;99737.13;1087198;54;20038;-80
2022/12/07 17:19:14;;;;;;;23.42;14.00;;;;;;;4.60;74.99;99737.72;1087466;54;20027;-80
2022/12/07 17:20:19;;;;;;;18.00;12.50;;;;;;;4.50;74.87;99735.75;1087041;54;20026;-79
2022/12/07 17:23:03;;;;;;;31.17;15.63;;;;;;;4.62;74.84;99738.47;1087028;54;20026;-80
2022/12/07 17:24:13;;;;;;;28.58;15.98;;;;;;;4.62;74.72;99741.94;1086973;54;20039;-80
2022/12/07 17:25:27;;;;;;;32.60;16.95;;;;;;;4.56;75.01;99744.19;1087083;54;20042;-80
2022/12/07 17:26:34;;;;;;;21.80;13.88;;;;;;;4.48;74.75;99742.97;1087304;54;20034;-80
2022/12/07 17:28:02;;;;;;;34.15;18.30;;;;;;;4.57;74.88;99741.47;1087234;54;20034;-79
2022/12/07 17:29:17;;;;;;;28.52;15.73;;;;;;;4.61;74.61;99736.78;1087250;54;20050;-80
2022/12/07 17:30:23;;;;;;;31.63;17.17;;;;;;;4.54;74.44;99736.38;1087367;54;20030;-81
2022/12/07 17:31:25;;;;;;;26.42;15.77;;;;;;;4.43;74.78;99739.81;1087444;54;20046;-81
2022/12/07 17:32:29;;;;;;;20.45;13.70;;;;;;;4.33;75.23;99739.63;1087540;54;21026;-80
2022/12/07 17:33:36;;;;;;;21.88;15.30;;;;;;;4.30;75.65;99731.09;1087475;54;20027;-81
2022/12/07 17:34:40;;;;;;;18.27;12.32;;;;;;;4.40;75.00;99740.03;1087408;54;20042;-81
2022/12/07 17:35:42;;;;;;;20.02;13.30;;;;;;;4.34;75.50;99738.69;1087490;54;20022;-80
2022/12/07 17:36:46;;;;;;;19.00;13.13;;;;;;;4.25;75.51;99730.59;1087583;54;20038;-82
2022/12/07 17:37:51;;;;;;;21.60;13.55;;;;;;;4.38;75.45;99736.66;1087491;47;20043;-81
2022/12/07 17:38:53;;;;;;;17.33;12.73;;;;;;;4.39;75.48;99734.88;1087417;54;20034;-82
2022/12/07 17:39:58;;;;;;;18.05;13.00;;;;;;;4.37;75.72;99732.31;1087544;54;20050;-80
2022/12/07 17:41:00;;;;;;;18.45;12.40;;;;;;;4.27;75.85;99731.28;1087532;54;20061;-81
2022/12/07 17:43:24;;;;;;;18.38;12.20;;;;;;;4.28;75.56;99727.69;1087653;54;20031;-81
2022/12/07 17:44:27;;;;;;;19.30;12.25;;;;;;;4.38;75.41;99720.78;1087894;54;20065;-81
2022/12/07 17:45:31;;;;;;;17.50;12.63;;;;;;;4.34;75.37;99725.44;1087775;54;20046;-81
2022/12/07 17:46:33;;;;;;;18.67;12.65;;;;;;;4.24;75.51;99723.59;1087839;54;20027;-82
2022/12/07 17:47:38;;;;;;;16.35;11.95;;;;;;;4.21;75.71;99722.00;1087721;54;20086;-82
2022/12/07 17:48:42;;;;;;;18.65;12.80;;;;;;;4.28;75.64;99725.06;1087641;54;20034;-80
2022/12/07 17:49:45;;;;;;;16.13;11.63;;;;;;;4.21;75.72;99725.50;1087646;54;20100;-84
2022/12/07 17:53:23;;;;;;;18.23;12.93;;;;;;;4.39;75.36;99722.47;1087804;54;20387;-80
2022/12/07 17:54:24;;;;;;;14.20;10.32;;;;;;;4.55;74.81;99723.97;1087963;54;20034;-81
2022/12/07 17:55:29;;;;;;;15.00;11.35;;;;;;;4.46;74.81;99720.22;1088181;54;20011;-81
2022/12/07 17:56:33;;;;;;;17.75;12.55;;;;;;;4.35;75.14;99721.00;1089814;46;20053;-81
2022/12/07 17:57:40;;;;;;;17.17;11.57;;;;;;;4.32;75.14;99719.41;1088062;54;20054;-80
2022/12/07 17:58:44;;;;;;;18.40;13.35;;;;;;;4.40;74.84;99724.16;1087915;54;20041;-78
2022/12/07 17:59:46;;;;;;;18.55;13.60;;;;;;;4.31;75.00;99722.19;1087884;54;20069;-79
2022/12/07 18:00:50;;;;;;;17.23;11.90;;;;;;;4.41;74.87;99728.50;1087924;54;20042;-79
2022/12/07 18:01:52;;;;;;;17.10;12.75;;;;;;;4.30;75.01;99718.69;1087770;54;20094;-78
2022/12/07 18:02:56;;;;;;;18.73;13.02;;;;;;;4.25;74.95;99730.59;1087940;54;20026;-79
2022/12/07 18:04:02;;;;;;;15.65;12.20;;;;;;;4.25;75.25;99725.28;1087953;54;20031;-78
2022/12/07 18:05:04;;;;;;;17.85;12.50;;;;;;;4.28;75.18;99720.63;1087810;54;20049;-80
2022/12/07 18:06:09;;;;;;;19.92;14.80;;;;;;;4.24;75.23;99724.44;1087904;54;20090;-79
2022/12/07 18:07:13;;;;;;;18.13;13.57;;;;;;;4.35;74.78;99718.34;1087881;54;20030;-79
2022/12/07 18:08:18;;;;;;;19.52;14.07;;;;;;;4.30;75.06;99725.78;1087855;54;20057;-80
2022/12/07 18:09:20;;;;;;;19.00;14.10;;;;;;;4.30;75.17;99729.28;1087835;54;20062;-80
2022/12/07 18:10:26;;;;;;;17.45;13.10;;;;;;;4.23;75.29;99720.09;1087883;54;20030;-79
2022/12/07 18:11:30;;;;;;;18.52;13.30;;;;;;;4.26;75.43;99716.38;1088621;46;20034;-80
2022/12/07 18:12:34;;;;;;;19.77;12.65;;;;;;;4.18;75.16;99719.59;1088657;46;20018;-79
2022/12/07 18:13:38;;;;;;;19.20;12.63;;;;;;;4.24;75.19;99719.13;1088359;39;20708;-80
2022/12/07 18:14:42;;;;;;;17.05;12.38;;;;;;;4.40;74.86;99718.88;1087847;54;21035;-81
2022/12/07 18:15:44;;;;;;;17.83;12.93;;;;;;;4.50;74.24;99713.72;1087879;54;20037;-80
2022/12/07 18:16:49;;;;;;;19.35;13.02;;;;;;;4.32;74.83;99721.25;1087939;54;20065;-78
2022/12/07 18:17:53;;;;;;;18.50;12.63;;;;;;;4.22;75.04;99721.91;1087835;54;20065;-79
2022/12/07 18:19:05;;;;;;;17.77;12.70;;;;;;;4.26;74.98;99726.97;1087840;54;20034;-80
2022/12/07 18:20:10;;;;;;;19.30;13.95;;;;;;;4.19;75.37;99724.78;1087799;54;20803;-79
2022/12/07 18:21:15;;;;;;;18.35;13.00;;;;;;;4.29;75.11;99726.75;1087447;46;21026;-79
2022/12/07 18:22:19;;;;;;;19.50;13.55;;;;;;;4.27;75.04;99723.34;1094467;39;20699;-80
2022/12/07 18:23:21;;;;;;;18.92;13.45;;;;;;;4.29;75.01;99722.31;1087864;54;20034;-80
2022/12/07 18:24:26;;;;;;;19.90;13.75;;;;;;;4.30;74.99;99717.84;1087863;54;21202;-80
2022/12/07 18:25:30;;;;;;;19.00;12.98;;;;;;;4.39;74.56;99716.34;1087834;54;20057;-79
2022/12/07 18:26:37;;;;;;;17.23;12.82;;;;;;;4.58;74.25;99721.09;1087888;54;20040;-78
2022/12/07 18:27:42;;;;;;;17.83;13.07;;;;;;;4.44;74.33;99728.25;1087878;54;20069;-79
2022/12/07 18:28:46;;;;;;;19.52;12.75;;;;;;;4.58;74.05;99726.41;1092316;39;20629;-79
2022/12/07 18:29:51;;;;;;;17.75;12.88;;;;;;;4.52;74.09;99722.41;1088894;46;20019;-79
2022/12/07 18:30:56;;;;;;;17.52;12.75;;;;;;;4.49;74.12;99725.25;1087875;54;20041;-79
2022/12/07 18:32:00;;;;;;;17.30;12.25;;;;;;;4.49;74.27;99719.97;1087861;54;20011;-78
2022/12/07 18:33:04;;;;;;;18.65;13.52;;;;;;;4.36;74.49;99717.38;1089463;46;20034;-78
2022/12/07 18:34:10;;;;;;;17.65;13.02;;;;;;;4.34;74.53;99719.31;1087804;54;20026;-79
2022/12/07 18:35:15;;;;;;;17.85;13.32;;;;;;;4.39;74.46;99724.28;1087813;54;20026;-81
2022/12/07 18:36:16;;;;;;;17.50;12.50;;;;;;;4.40;74.23;99718.88;1088289;39;20793;-79
2022/12/07 18:37:26;;;;;;;17.60;13.20;;;;;;;4.22;74.90;99716.63;1087856;54;20046;-79
2022/12/07 18:38:27;;;;;;;17.10;12.07;;;;;;;4.29;74.31;99721.44;1087808;54;20034;-79
2022/12/07 18:39:32;;;;;;;18.65;13.70;;;;;;;4.23;74.74;99717.44;1088264;39;21070;-80
2022/12/07 18:40:39;;;;;;;18.23;13.35;;;;;;;4.20;75.00;99723.81;1087759;54;20034;-79
2022/12/07 18:41:43;;;;;;;18.95;13.48;;;;;;;4.37;74.59;99721.72;1087768;54;20061;-79
2022/12/07 18:42:49;;;;;;;18.45;13.38;;;;;;;4.46;74.11;99718.41;1087846;54;20046;-79
2022/12/07 18:43:53;;;;;;;17.20;12.15;;;;;;;4.49;73.92;99717.31;1087801;54;20034;-78
2022/12/07 18:44:57;;;;;;;17.05;12.55;;;;;;;4.57;73.72;99727.34;1087817;54;20025;-79
2022/12/07 18:46:02;;;;;;;18.00;12.70;;;;;;;4.40;73.83;99724.16;1087827;54;20042;-78
2022/12/07 18:47:04;;;;;;;20.30;13.93;;;;;;;4.31;74.14;99720.38;1087842;54;20030;-80
2022/12/07 18:48:08;;;;;;;19.80;13.77;;;;;;;4.34;74.27;99724.63;1087763;54;20030;-80
2022/12/07 18:49:12;;;;;;;20.58;14.13;;;;;;;4.15;74.56;99718.03;1087800;54;20110;-81
2022/12/07 18:50:16;;;;;;;18.63;13.93;;;;;;;4.23;74.71;99709.50;1087763;54;20030;-80
2022/12/07 18:51:19;;;;;;;18.67;12.90;;;;;;;4.31;74.41;99714.25;1087841;54;20027;-79
2022/12/07 18:52:23;;;;;;;17.70;12.82;;;;;;;4.22;74.61;99708.69;1087868;54;20031;-78
2022/12/07 18:53:25;;;;;;;17.33;13.48;;;;;;;4.28;74.42;99714.47;1087773;54;20697;-79
2022/12/07 18:54:29;;;;;;;18.27;13.93;;;;;;;4.32;74.29;99708.84;1087762;54;20031;-79
2022/12/07 18:55:34;;;;;;;20.30;13.90;;;;;;;4.29;74.50;99710.88;1087754;54;20030;-79
2022/12/07 18:56:36;;;;;;;17.38;13.45;;;;;;;4.34;74.18;99703.44;1087852;54;20054;-79
2022/12/07 18:57:40;;;;;;;18.02;13.45;;;;;;;4.54;73.62;99704.59;1087791;54;20046;-79
2022/12/07 18:59:45;;;;;;;18.95;14.43;;;;;;;4.41;73.99;99703.81;1087786;54;20046;-78
2022/12/07 19:00:11;;;;;;;17.92;13.75;;;;;;;4.34;73.88;99703.44;1087657;54;20713;-79
2022/12/07 19:01:16;;;;;;;20.38;13.80;;;;;;;4.31;74.24;99706.31;1087794;54;20035;-79
2022/12/07 19:02:17;;;;;;;19.35;12.85;;;;;;;4.41;73.83;99703.81;1087751;54;20057;-78
2022/12/07 19:03:22;;;;;;;17.65;13.07;;;;;;;4.25;74.29;99704.97;1087797;54;20042;-80
2022/12/07 19:04:26;;;;;;;18.80;13.48;;;;;;;4.33;73.88;99701.75;1087777;54;20050;-79
2022/12/07 19:05:30;;;;;;;16.45;12.52;;;;;;;4.35;74.00;99699.81;1087711;54;20035;-78
2022/12/07 19:06:33;;;;;;;16.55;12.82;;;;;;;4.24;74.24;99702.44;1087799;54;20038;-79
2022/12/07 19:07:37;;;;;;;16.65;12.00;;;;;;;4.33;73.99;99705.22;1087862;54;20026;-80
2022/12/07 19:08:39;;;;;;;19.73;13.23;;;;;;;4.25;73.97;99698.84;1087755;54;20038;-81
2022/12/07 19:09:44;;;;;;;17.77;12.88;;;;;;;4.33;74.02;99701.75;1087787;54;20042;-81
2022/12/07 19:10:48;;;;;;;16.70;12.35;;;;;;;4.39;73.93;99705.75;1087705;54;20085;-80
2022/12/07 19:11:50;;;;;;;16.38;12.07;;;;;;;4.47;73.49;99693.63;1088770;39;20617;-80
2022/12/07 19:12:54;;;;;;;15.77;11.90;;;;;;;4.46;73.60;99696.41;1090316;31;20705;-80
2022/12/07 19:13:57;;;;;;;17.60;13.02;;;;;;;4.51;73.32;99697.75;1087694;54;20053;-80
2022/12/07 19:15:02;;;;;;;22.73;13.85;;;;;;;4.40;73.56;99702.97;1087659;54;20109;-80
2022/12/07 19:16:09;;;;;;;18.60;12.50;;;;;;;4.46;73.40;99697.22;1087707;54;20709;-79
2022/12/07 19:17:15;;;;;;;15.88;12.02;;;;;;;4.63;72.98;99687.19;1087824;54;20086;-80
2022/12/07 19:18:20;;;;;;;17.40;12.38;;;;;;;4.61;73.21;99689.94;1087801;54;20038;-79
2022/12/07 19:19:23;;;;;;;19.13;12.88;;;;;;;4.51;73.13;99695.09;1087827;54;20065;-80
2022/12/07 19:20:27;;;;;;;18.23;12.93;;;;;;;4.56;73.21;99696.53;1087809;54;20031;-79
2022/12/07 19:22:52;;;;;;;17.30;12.98;;;;;;;4.37;73.34;99697.91;1087138;54;20031;-79
2022/12/07 19:25:12;;;;;;;16.67;12.15;;;;;;;4.59;72.97;99685.72;1087750;54;20038;-80
2022/12/07 19:26:14;;;;;;;16.98;11.77;;;;;;;4.58;72.90;99684.03;1087765;54;20034;-80
2022/12/07 19:27:19;;;;;;;17.67;13.65;;;;;;;4.48;73.34;99689.19;1090263;39;20653;-80
2022/12/07 19:28:21;;;;;;;19.92;13.75;;;;;;;4.40;73.39;99697.69;1087724;54;20035;-79
2022/12/07 19:29:26;;;;;;;18.33;11.45;;;;;;;4.53;72.85;99687.84;1087766;54;20031;-80
2022/12/07 19:32:20;;;;;;;16.83;12.15;;;;;;;4.39;72.89;99700.47;1088991;39;20226;-80
2022/12/07 19:33:25;;;;;;;17.63;11.77;;;;;;;4.40;72.99;99704.78;1087801;54;20031;-80
2022/12/07 19:36:31;;;;;;;16.30;12.38;;;;;;;4.22;73.40;99692.81;1087390;54;20030;-79
2022/12/07 19:37:36;;;;;;;18.33;12.68;;;;;;;4.28;73.63;99693.28;1087730;54;20034;-80
2022/12/07 19:42:53;;;;;;;18.65;13.70;;;;;;;4.46;72.96;99689.28;1087714;54;20030;-80
2022/12/07 19:43:54;;;;;;;18.35;12.32;;;;;;;4.57;72.84;99682.34;1087839;54;20030;-80
2022/12/07 19:44:58;;;;;;;16.70;12.50;;;;;;;4.68;72.58;99685.88;1087674;54;20042;-80
2022/12/07 19:46:04;;;;;;;16.13;11.43;;;;;;;4.76;72.34;99687.94;1087762;54;20061;-79
2022/12/07 19:47:08;;;;;;;15.32;11.50;;;;;;;4.72;72.26;99683.84;1087797;54;20030;-79
2022/12/07 19:48:13;;;;;;;13.95;10.52;;;;;;;4.81;72.16;99695.53;1087744;54;20042;-81
2022/12/07 19:49:43;;;;;;;14.85;11.23;;;;;;;4.83;71.65;99686.50;1087823;54;20034;-80
2022/12/07 19:51:11;;;;;;;15.10;10.95;;;;;;;4.88;72.03;99687.97;1087803;54;20026;-80
2022/12/07 19:52:16;;;;;;;14.80;10.23;;;;;;;4.88;71.71;99680.03;1087742;54;20018;-80
2022/12/07 19:53:17;;;;;;;14.82;10.85;;;;;;;4.89;71.58;99679.91;1087712;54;20077;-81
2022/12/07 19:54:24;;;;;;;13.45;10.45;;;;;;;4.90;71.62;99678.94;1088012;46;20038;-81